sensor_id;sensor_type;location;lat;lon;timestamp;P1;durP1;ratioP1;P2;durP2;ratioP2
33987;SDS011;37428;53.580;-1.666;2023-12-20T00:01:09;18.88;;;2.58;;
33987;SDS011;37428;53.580;-1.666;2023-12-20T00:04:13;14.98;;;2.22;;
33987;SDS011;37428;53.580;-1.666;2023-12-20T00:07:23;9.02;;;1.65;;
33987;SDS011;37428;53.580;-1.666;2023-12-20T00:10:25;18.42;;;3.25;;
33987;SDS011;37428;53.580;-1.666;2023-12-20T00:13:27;14.03;;;2.13;;
33987;SDS011;37428;53.580;-1.666;2023-12-20T00:16:35;12.68;;;2.40;;
33987;SDS011;37428;53.580;-1.666;2023-12-20T00:19:37;18.45;;;4.03;;
33987;SDS011;37428;53.580;-1.666;2023-12-20T00:22:41;13.18;;;2.08;;
33987;SDS011;37428;53.580;-1.666;2023-12-20T00:25:43;11.13;;;1.95;;
33987;SDS011;37428;53.580;-1.666;2023-12-20T00:28:45;9.27;;;1.70;;
33987;SDS011;37428;53.580;-1.666;2023-12-20T00:31:48;20.17;;;3.53;;
33987;SDS011;37428;53.580;-1.666;2023-12-20T00:34:50;16.08;;;2.45;;
33987;SDS011;37428;53.580;-1.666;2023-12-20T00:37:54;13.48;;;2.72;;
33987;SDS011;37428;53.580;-1.666;2023-12-20T00:40:56;11.88;;;2.70;;
33987;SDS011;37428;53.580;-1.666;2023-12-20T00:44:16;14.65;;;2.90;;
33987;SDS011;37428;53.580;-1.666;2023-12-20T00:47:18;16.00;;;3.22;;
33987;SDS011;37428;53.580;-1.666;2023-12-20T00:50:20;9.30;;;2.05;;
33987;SDS011;37428;53.580;-1.666;2023-12-20T00:53:24;13.30;;;2.53;;
33987;SDS011;37428;53.580;-1.666;2023-12-20T00:56:26;10.77;;;2.35;;
33987;SDS011;37428;53.580;-1.666;2023-12-20T00:59:30;6.78;;;2.10;;
33987;SDS011;37428;53.580;-1.666;2023-12-20T01:02:33;20.83;;;2.72;;
33987;SDS011;37428;53.580;-1.666;2023-12-20T01:08:38;13.43;;;3.63;;
33987;SDS011;37428;53.580;-1.666;2023-12-20T01:11:40;19.05;;;3.85;;
33987;SDS011;37428;53.580;-1.666;2023-12-20T01:14:43;16.40;;;2.40;;
33987;SDS011;37428;53.580;-1.666;2023-12-20T01:17:45;17.13;;;2.50;;
33987;SDS011;37428;53.580;-1.666;2023-12-20T01:20:50;19.30;;;3.55;;
33987;SDS011;37428;53.580;-1.666;2023-12-20T01:23:54;14.05;;;2.75;;
33987;SDS011;37428;53.580;-1.666;2023-12-20T01:26:56;14.38;;;2.63;;
33987;SDS011;37428;53.580;-1.666;2023-12-20T01:30:02;13.85;;;2.88;;
33987;SDS011;37428;53.580;-1.666;2023-12-20T01:33:04;22.70;;;3.05;;
33987;SDS011;37428;53.580;-1.666;2023-12-20T01:36:07;20.95;;;3.22;;
33987;SDS011;37428;53.580;-1.666;2023-12-20T01:39:13;14.45;;;1.98;;
33987;SDS011;37428;53.580;-1.666;2023-12-20T01:42:16;15.32;;;2.72;;
33987;SDS011;37428;53.580;-1.666;2023-12-20T01:45:18;22.00;;;2.90;;
33987;SDS011;37428;53.580;-1.666;2023-12-20T01:48:22;21.38;;;3.17;;
33987;SDS011;37428;53.580;-1.666;2023-12-20T01:51:28;17.02;;;2.72;;
33987;SDS011;37428;53.580;-1.666;2023-12-20T01:54:40;15.75;;;3.20;;
33987;SDS011;37428;53.580;-1.666;2023-12-20T01:57:46;21.27;;;2.75;;
33987;SDS011;37428;53.580;-1.666;2023-12-20T02:00:48;15.82;;;2.30;;
33987;SDS011;37428;53.580;-1.666;2023-12-20T02:03:51;17.80;;;2.42;;
33987;SDS011;37428;53.580;-1.666;2023-12-20T02:09:58;14.77;;;3.65;;
33987;SDS011;37428;53.580;-1.666;2023-12-20T02:13:01;19.90;;;3.72;;
33987;SDS011;37428;53.580;-1.666;2023-12-20T02:16:03;13.13;;;2.33;;
33987;SDS011;37428;53.580;-1.666;2023-12-20T02:19:09;21.55;;;2.90;;
33987;SDS011;37428;53.580;-1.666;2023-12-20T02:22:17;14.38;;;5.32;;
33987;SDS011;37428;53.580;-1.666;2023-12-20T02:25:19;18.63;;;2.95;;
33987;SDS011;37428;53.580;-1.666;2023-12-20T02:28:21;14.15;;;3.28;;
33987;SDS011;37428;53.580;-1.666;2023-12-20T02:31:24;30.65;;;3.78;;
33987;SDS011;37428;53.580;-1.666;2023-12-20T02:34:26;15.70;;;2.35;;
33987;SDS011;37428;53.580;-1.666;2023-12-20T02:37:30;13.85;;;2.58;;
33987;SDS011;37428;53.580;-1.666;2023-12-20T02:40:32;13.80;;;2.72;;
33987;SDS011;37428;53.580;-1.666;2023-12-20T02:43:34;17.08;;;2.80;;
33987;SDS011;37428;53.580;-1.666;2023-12-20T02:46:36;22.65;;;3.55;;
33987;SDS011;37428;53.580;-1.666;2023-12-20T02:49:40;15.25;;;3.83;;
33987;SDS011;37428;53.580;-1.666;2023-12-20T02:52:44;15.30;;;2.85;;
33987;SDS011;37428;53.580;-1.666;2023-12-20T02:55:47;15.73;;;3.40;;
33987;SDS011;37428;53.580;-1.666;2023-12-20T02:58:49;15.38;;;2.15;;
33987;SDS011;37428;53.580;-1.666;2023-12-20T03:01:51;18.63;;;3.60;;
33987;SDS011;37428;53.580;-1.666;2023-12-20T03:04:53;17.70;;;3.63;;
33987;SDS011;37428;53.580;-1.666;2023-12-20T03:07:57;10.85;;;2.60;;
33987;SDS011;37428;53.580;-1.666;2023-12-20T03:10:59;14.15;;;4.10;;
33987;SDS011;37428;53.580;-1.666;2023-12-20T03:14:01;11.32;;;2.67;;
33987;SDS011;37428;53.580;-1.666;2023-12-20T03:20:07;16.50;;;2.50;;
33987;SDS011;37428;53.580;-1.666;2023-12-20T03:23:11;18.65;;;2.28;;
33987;SDS011;37428;53.580;-1.666;2023-12-20T03:26:13;13.77;;;2.67;;
33987;SDS011;37428;53.580;-1.666;2023-12-20T03:29:15;14.48;;;3.20;;
33987;SDS011;37428;53.580;-1.666;2023-12-20T03:32:18;15.40;;;2.67;;
33987;SDS011;37428;53.580;-1.666;2023-12-20T03:35:20;18.00;;;2.25;;
33987;SDS011;37428;53.580;-1.666;2023-12-20T03:38:24;12.20;;;3.30;;
33987;SDS011;37428;53.580;-1.666;2023-12-20T03:41:26;15.00;;;2.53;;
33987;SDS011;37428;53.580;-1.666;2023-12-20T03:44:28;14.38;;;2.92;;
33987;SDS011;37428;53.580;-1.666;2023-12-20T03:47:30;14.50;;;2.38;;
33987;SDS011;37428;53.580;-1.666;2023-12-20T03:50:34;13.35;;;2.58;;
33987;SDS011;37428;53.580;-1.666;2023-12-20T03:53:38;14.85;;;2.35;;
33987;SDS011;37428;53.580;-1.666;2023-12-20T03:56:41;12.68;;;2.45;;
33987;SDS011;37428;53.580;-1.666;2023-12-20T03:59:43;11.60;;;1.95;;
33987;SDS011;37428;53.580;-1.666;2023-12-20T04:02:45;15.02;;;2.83;;
33987;SDS011;37428;53.580;-1.666;2023-12-20T04:05:49;17.70;;;2.58;;
33987;SDS011;37428;53.580;-1.666;2023-12-20T04:08:53;12.43;;;2.80;;
33987;SDS011;37428;53.580;-1.666;2023-12-20T04:11:58;9.10;;;1.80;;
33987;SDS011;37428;53.580;-1.666;2023-12-20T04:15:00;11.95;;;1.85;;
33987;SDS011;37428;53.580;-1.666;2023-12-20T04:18:09;14.32;;;2.33;;
33987;SDS011;37428;53.580;-1.666;2023-12-20T04:21:11;17.00;;;2.67;;
33987;SDS011;37428;53.580;-1.666;2023-12-20T04:24:15;12.48;;;2.47;;
33987;SDS011;37428;53.580;-1.666;2023-12-20T04:27:17;12.48;;;2.92;;
33987;SDS011;37428;53.580;-1.666;2023-12-20T04:30:19;17.00;;;2.58;;
33987;SDS011;37428;53.580;-1.666;2023-12-20T04:33:21;14.07;;;2.65;;
33987;SDS011;37428;53.580;-1.666;2023-12-20T04:36:24;15.07;;;2.45;;
33987;SDS011;37428;53.580;-1.666;2023-12-20T04:39:28;17.40;;;2.20;;
33987;SDS011;37428;53.580;-1.666;2023-12-20T04:42:30;14.75;;;2.22;;
33987;SDS011;37428;53.580;-1.666;2023-12-20T04:45:32;14.27;;;2.45;;
33987;SDS011;37428;53.580;-1.666;2023-12-20T04:48:35;15.15;;;5.70;;
33987;SDS011;37428;53.580;-1.666;2023-12-20T04:51:37;11.65;;;2.53;;
33987;SDS011;37428;53.580;-1.666;2023-12-20T04:54:40;16.98;;;2.35;;
33987;SDS011;37428;53.580;-1.666;2023-12-20T04:57:43;14.50;;;3.00;;
33987;SDS011;37428;53.580;-1.666;2023-12-20T05:00:45;7.88;;;1.48;;
33987;SDS011;37428;53.580;-1.666;2023-12-20T05:03:47;15.20;;;1.95;;
33987;SDS011;37428;53.580;-1.666;2023-12-20T05:06:49;12.00;;;1.83;;
33987;SDS011;37428;53.580;-1.666;2023-12-20T05:09:53;13.73;;;2.42;;
33987;SDS011;37428;53.580;-1.666;2023-12-20T05:12:55;9.85;;;2.40;;
33987;SDS011;37428;53.580;-1.666;2023-12-20T05:15:58;14.38;;;1.92;;
33987;SDS011;37428;53.580;-1.666;2023-12-20T05:19:00;20.60;;;1.95;;
33987;SDS011;37428;53.580;-1.666;2023-12-20T05:22:06;8.85;;;2.33;;
33987;SDS011;37428;53.580;-1.666;2023-12-20T05:25:10;5.85;;;1.23;;
33987;SDS011;37428;53.580;-1.666;2023-12-20T05:28:12;20.30;;;2.80;;
33987;SDS011;37428;53.580;-1.666;2023-12-20T05:31:15;12.73;;;1.90;;
33987;SDS011;37428;53.580;-1.666;2023-12-20T05:34:17;10.73;;;1.70;;
33987;SDS011;37428;53.580;-1.666;2023-12-20T05:37:21;12.10;;;2.10;;
33987;SDS011;37428;53.580;-1.666;2023-12-20T05:40:25;20.75;;;3.72;;
33987;SDS011;37428;53.580;-1.666;2023-12-20T05:43:27;11.02;;;2.17;;
33987;SDS011;37428;53.580;-1.666;2023-12-20T05:46:30;14.57;;;2.13;;
33987;SDS011;37428;53.580;-1.666;2023-12-20T05:49:33;11.85;;;2.35;;
33987;SDS011;37428;53.580;-1.666;2023-12-20T05:52:35;11.18;;;2.45;;
33987;SDS011;37428;53.580;-1.666;2023-12-20T05:55:38;10.93;;;1.63;;
33987;SDS011;37428;53.580;-1.666;2023-12-20T05:58:41;12.70;;;2.67;;
33987;SDS011;37428;53.580;-1.666;2023-12-20T06:01:43;13.70;;;1.95;;
33987;SDS011;37428;53.580;-1.666;2023-12-20T06:04:52;10.43;;;2.00;;
33987;SDS011;37428;53.580;-1.666;2023-12-20T06:07:54;21.90;;;2.42;;
33987;SDS011;37428;53.580;-1.666;2023-12-20T06:10:59;15.25;;;2.70;;
33987;SDS011;37428;53.580;-1.666;2023-12-20T06:14:01;10.00;;;1.73;;
33987;SDS011;37428;53.580;-1.666;2023-12-20T06:17:03;11.43;;;2.13;;
33987;SDS011;37428;53.580;-1.666;2023-12-20T06:20:06;9.00;;;1.20;;
33987;SDS011;37428;53.580;-1.666;2023-12-20T06:23:09;16.33;;;2.33;;
33987;SDS011;37428;53.580;-1.666;2023-12-20T06:26:15;8.68;;;1.88;;
33987;SDS011;37428;53.580;-1.666;2023-12-20T06:29:17;8.02;;;1.23;;
33987;SDS011;37428;53.580;-1.666;2023-12-20T06:32:19;12.27;;;2.25;;
33987;SDS011;37428;53.580;-1.666;2023-12-20T06:35:23;10.32;;;1.40;;
33987;SDS011;37428;53.580;-1.666;2023-12-20T06:38:26;13.68;;;2.55;;
33987;SDS011;37428;53.580;-1.666;2023-12-20T06:41:29;21.80;;;2.67;;
33987;SDS011;37428;53.580;-1.666;2023-12-20T06:44:33;15.63;;;2.00;;
33987;SDS011;37428;53.580;-1.666;2023-12-20T06:47:37;10.60;;;2.33;;
33987;SDS011;37428;53.580;-1.666;2023-12-20T06:50:39;11.23;;;2.28;;
33987;SDS011;37428;53.580;-1.666;2023-12-20T06:53:48;11.13;;;1.60;;
33987;SDS011;37428;53.580;-1.666;2023-12-20T06:56:52;8.30;;;1.80;;
33987;SDS011;37428;53.580;-1.666;2023-12-20T06:59:54;18.05;;;2.60;;
33987;SDS011;37428;53.580;-1.666;2023-12-20T07:02:58;11.00;;;1.90;;
33987;SDS011;37428;53.580;-1.666;2023-12-20T07:06:00;19.17;;;2.83;;
33987;SDS011;37428;53.580;-1.666;2023-12-20T07:09:03;11.73;;;2.15;;
33987;SDS011;37428;53.580;-1.666;2023-12-20T07:12:10;10.68;;;1.45;;
33987;SDS011;37428;53.580;-1.666;2023-12-20T07:15:12;12.68;;;1.80;;
33987;SDS011;37428;53.580;-1.666;2023-12-20T07:18:14;29.23;;;3.30;;
33987;SDS011;37428;53.580;-1.666;2023-12-20T07:21:17;12.82;;;1.25;;
33987;SDS011;37428;53.580;-1.666;2023-12-20T07:24:19;16.10;;;3.10;;
33987;SDS011;37428;53.580;-1.666;2023-12-20T07:27:23;13.07;;;1.65;;
33987;SDS011;37428;53.580;-1.666;2023-12-20T07:30:25;12.40;;;2.40;;
33987;SDS011;37428;53.580;-1.666;2023-12-20T07:36:30;14.10;;;2.55;;
33987;SDS011;37428;53.580;-1.666;2023-12-20T07:39:32;19.98;;;2.47;;
33987;SDS011;37428;53.580;-1.666;2023-12-20T07:42:36;7.47;;;1.58;;
33987;SDS011;37428;53.580;-1.666;2023-12-20T07:45:38;10.63;;;2.08;;
33987;SDS011;37428;53.580;-1.666;2023-12-20T07:48:40;16.52;;;2.67;;
33987;SDS011;37428;53.580;-1.666;2023-12-20T07:51:42;12.02;;;1.65;;
33987;SDS011;37428;53.580;-1.666;2023-12-20T07:54:45;15.70;;;2.53;;
33987;SDS011;37428;53.580;-1.666;2023-12-20T07:57:48;9.82;;;2.08;;
33987;SDS011;37428;53.580;-1.666;2023-12-20T08:00:51;14.98;;;1.50;;
33987;SDS011;37428;53.580;-1.666;2023-12-20T08:03:53;20.27;;;2.15;;
33987;SDS011;37428;53.580;-1.666;2023-12-20T08:06:55;17.85;;;2.03;;
33987;SDS011;37428;53.580;-1.666;2023-12-20T08:09:57;18.40;;;3.40;;
33987;SDS011;37428;53.580;-1.666;2023-12-20T08:16:18;10.18;;;1.75;;
33987;SDS011;37428;53.580;-1.666;2023-12-20T08:19:23;15.40;;;2.13;;
33987;SDS011;37428;53.580;-1.666;2023-12-20T08:22:25;7.32;;;1.35;;
33987;SDS011;37428;53.580;-1.666;2023-12-20T08:25:29;15.80;;;2.72;;
33987;SDS011;37428;53.580;-1.666;2023-12-20T08:28:33;12.15;;;1.95;;
33987;SDS011;37428;53.580;-1.666;2023-12-20T08:31:35;10.02;;;1.63;;
33987;SDS011;37428;53.580;-1.666;2023-12-20T08:34:37;14.82;;;2.17;;
33987;SDS011;37428;53.580;-1.666;2023-12-20T08:37:39;10.98;;;1.48;;
33987;SDS011;37428;53.580;-1.666;2023-12-20T08:40:42;11.93;;;2.53;;
33987;SDS011;37428;53.580;-1.666;2023-12-20T08:43:45;9.85;;;1.67;;
33987;SDS011;37428;53.580;-1.666;2023-12-20T08:46:48;16.63;;;2.67;;
33987;SDS011;37428;53.580;-1.666;2023-12-20T08:49:52;9.55;;;2.65;;
33987;SDS011;37428;53.580;-1.666;2023-12-20T08:52:56;17.00;;;2.88;;
33987;SDS011;37428;53.580;-1.666;2023-12-20T08:55:58;7.47;;;1.73;;
33987;SDS011;37428;53.580;-1.666;2023-12-20T08:59:03;8.98;;;1.63;;
33987;SDS011;37428;53.580;-1.666;2023-12-20T09:02:05;9.19;;;2.30;;
33987;SDS011;37428;53.580;-1.666;2023-12-20T09:05:10;8.90;;;1.63;;
33987;SDS011;37428;53.580;-1.666;2023-12-20T09:08:12;11.02;;;1.58;;
33987;SDS011;37428;53.580;-1.666;2023-12-20T09:14:26;10.55;;;1.90;;
33987;SDS011;37428;53.580;-1.666;2023-12-20T09:17:28;9.27;;;2.05;;
33987;SDS011;37428;53.580;-1.666;2023-12-20T09:20:31;9.27;;;1.92;;
33987;SDS011;37428;53.580;-1.666;2023-12-20T09:23:33;10.20;;;1.10;;
33987;SDS011;37428;53.580;-1.666;2023-12-20T09:26:36;11.57;;;1.25;;
33987;SDS011;37428;53.580;-1.666;2023-12-20T09:29:41;6.13;;;1.08;;
33987;SDS011;37428;53.580;-1.666;2023-12-20T09:32:43;13.60;;;2.85;;
33987;SDS011;37428;53.580;-1.666;2023-12-20T09:35:46;4.10;;;1.10;;
33987;SDS011;37428;53.580;-1.666;2023-12-20T09:38:48;7.50;;;1.67;;
33987;SDS011;37428;53.580;-1.666;2023-12-20T09:41:54;4.78;;;1.00;;
33987;SDS011;37428;53.580;-1.666;2023-12-20T09:48:23;7.10;;;1.73;;
33987;SDS011;37428;53.580;-1.666;2023-12-20T09:51:28;8.40;;;1.08;;
33987;SDS011;37428;53.580;-1.666;2023-12-20T09:54:31;7.30;;;2.13;;
33987;SDS011;37428;53.580;-1.666;2023-12-20T09:57:33;9.85;;;2.10;;
33987;SDS011;37428;53.580;-1.666;2023-12-20T10:00:37;4.45;;;1.02;;
33987;SDS011;37428;53.580;-1.666;2023-12-20T10:03:39;4.07;;;1.35;;
33987;SDS011;37428;53.580;-1.666;2023-12-20T10:06:43;5.57;;;1.30;;
33987;SDS011;37428;53.580;-1.666;2023-12-20T10:13:00;7.35;;;0.60;;
33987;SDS011;37428;53.580;-1.666;2023-12-20T10:16:05;2.33;;;0.75;;
33987;SDS011;37428;53.580;-1.666;2023-12-20T10:19:08;4.30;;;0.73;;
33987;SDS011;37428;53.580;-1.666;2023-12-20T10:22:10;3.55;;;0.93;;
33987;SDS011;37428;53.580;-1.666;2023-12-20T10:25:13;2.45;;;0.57;;
33987;SDS011;37428;53.580;-1.666;2023-12-20T10:28:15;3.00;;;0.40;;
33987;SDS011;37428;53.580;-1.666;2023-12-20T10:31:27;2.13;;;0.40;;
33987;SDS011;37428;53.580;-1.666;2023-12-20T10:34:32;0.52;;;0.40;;
33987;SDS011;37428;53.580;-1.666;2023-12-20T10:37:35;1.33;;;0.28;;
33987;SDS011;37428;53.580;-1.666;2023-12-20T10:40:38;1.52;;;1.15;;
33987;SDS011;37428;53.580;-1.666;2023-12-20T10:46:43;2.13;;;0.57;;
33987;SDS011;37428;53.580;-1.666;2023-12-20T10:49:51;1.25;;;1.10;;
33987;SDS011;37428;53.580;-1.666;2023-12-20T10:52:54;0.80;;;0.45;;
33987;SDS011;37428;53.580;-1.666;2023-12-20T10:55:57;2.10;;;0.30;;
33987;SDS011;37428;53.580;-1.666;2023-12-20T10:59:04;0.77;;;0.22;;
33987;SDS011;37428;53.580;-1.666;2023-12-20T11:02:11;0.88;;;0.40;;
33987;SDS011;37428;53.580;-1.666;2023-12-20T11:05:16;0.63;;;0.20;;
33987;SDS011;37428;53.580;-1.666;2023-12-20T11:08:44;0.50;;;0.22;;
33987;SDS011;37428;53.580;-1.666;2023-12-20T11:12:07;0.82;;;0.20;;
33987;SDS011;37428;53.580;-1.666;2023-12-20T11:15:14;0.85;;;0.65;;
33987;SDS011;37428;53.580;-1.666;2023-12-20T11:18:18;2.40;;;0.30;;
33987;SDS011;37428;53.580;-1.666;2023-12-20T11:21:20;1.05;;;0.20;;
33987;SDS011;37428;53.580;-1.666;2023-12-20T11:24:22;2.10;;;0.68;;
33987;SDS011;37428;53.580;-1.666;2023-12-20T11:27:27;1.63;;;0.70;;
33987;SDS011;37428;53.580;-1.666;2023-12-20T11:30:31;2.08;;;0.32;;
33987;SDS011;37428;53.580;-1.666;2023-12-20T11:37:19;7.38;;;1.00;;
33987;SDS011;37428;53.580;-1.666;2023-12-20T11:40:22;8.00;;;1.40;;
33987;SDS011;37428;53.580;-1.666;2023-12-20T11:43:31;7.65;;;1.35;;
33987;SDS011;37428;53.580;-1.666;2023-12-20T11:46:36;4.28;;;1.02;;
33987;SDS011;37428;53.580;-1.666;2023-12-20T11:49:40;5.50;;;1.00;;
33987;SDS011;37428;53.580;-1.666;2023-12-20T11:52:42;8.38;;;2.15;;
33987;SDS011;37428;53.580;-1.666;2023-12-20T11:55:47;15.35;;;1.67;;
33987;SDS011;37428;53.580;-1.666;2023-12-20T11:58:50;7.43;;;2.08;;
33987;SDS011;37428;53.580;-1.666;2023-12-20T12:01:52;7.68;;;1.65;;
33987;SDS011;37428;53.580;-1.666;2023-12-20T12:04:58;20.42;;;4.07;;
33987;SDS011;37428;53.580;-1.666;2023-12-20T12:08:01;12.00;;;2.28;;
33987;SDS011;37428;53.580;-1.666;2023-12-20T12:14:06;7.03;;;1.48;;
33987;SDS011;37428;53.580;-1.666;2023-12-20T12:17:12;12.10;;;1.50;;
33987;SDS011;37428;53.580;-1.666;2023-12-20T12:20:23;11.00;;;2.50;;
33987;SDS011;37428;53.580;-1.666;2023-12-20T12:23:25;12.70;;;1.90;;
33987;SDS011;37428;53.580;-1.666;2023-12-20T12:26:29;15.15;;;1.83;;
33987;SDS011;37428;53.580;-1.666;2023-12-20T12:29:32;8.30;;;1.30;;
33987;SDS011;37428;53.580;-1.666;2023-12-20T12:32:34;6.95;;;1.45;;
33987;SDS011;37428;53.580;-1.666;2023-12-20T12:35:38;7.63;;;1.83;;
33987;SDS011;37428;53.580;-1.666;2023-12-20T12:38:41;7.45;;;1.55;;
33987;SDS011;37428;53.580;-1.666;2023-12-20T12:41:43;3.85;;;0.95;;
33987;SDS011;37428;53.580;-1.666;2023-12-20T12:44:45;4.93;;;0.82;;
33987;SDS011;37428;53.580;-1.666;2023-12-20T12:47:48;8.47;;;2.20;;
33987;SDS011;37428;53.580;-1.666;2023-12-20T12:50:51;6.60;;;1.70;;
33987;SDS011;37428;53.580;-1.666;2023-12-20T12:53:54;10.52;;;2.17;;
33987;SDS011;37428;53.580;-1.666;2023-12-20T12:56:56;5.65;;;1.30;;
33987;SDS011;37428;53.580;-1.666;2023-12-20T12:59:59;7.22;;;1.02;;
33987;SDS011;37428;53.580;-1.666;2023-12-20T13:03:01;4.78;;;0.98;;
33987;SDS011;37428;53.580;-1.666;2023-12-20T13:06:05;7.18;;;1.40;;
33987;SDS011;37428;53.580;-1.666;2023-12-20T13:09:09;5.43;;;1.38;;
33987;SDS011;37428;53.580;-1.666;2023-12-20T13:12:11;4.47;;;2.13;;
33987;SDS011;37428;53.580;-1.666;2023-12-20T13:15:13;6.53;;;1.40;;
33987;SDS011;37428;53.580;-1.666;2023-12-20T13:18:16;8.75;;;1.55;;
33987;SDS011;37428;53.580;-1.666;2023-12-20T13:21:20;4.03;;;1.00;;
33987;SDS011;37428;53.580;-1.666;2023-12-20T13:24:22;4.75;;;1.30;;
33987;SDS011;37428;53.580;-1.666;2023-12-20T13:27:24;3.45;;;0.85;;
33987;SDS011;37428;53.580;-1.666;2023-12-20T13:30:26;2.10;;;0.88;;
33987;SDS011;37428;53.580;-1.666;2023-12-20T13:33:29;4.80;;;0.90;;
33987;SDS011;37428;53.580;-1.666;2023-12-20T13:36:32;3.17;;;1.00;;
33987;SDS011;37428;53.580;-1.666;2023-12-20T13:39:35;5.38;;;0.85;;
33987;SDS011;37428;53.580;-1.666;2023-12-20T13:42:37;5.72;;;0.93;;
33987;SDS011;37428;53.580;-1.666;2023-12-20T13:45:40;4.90;;;1.70;;
33987;SDS011;37428;53.580;-1.666;2023-12-20T13:48:42;4.07;;;1.10;;
33987;SDS011;37428;53.580;-1.666;2023-12-20T13:51:46;2.63;;;1.38;;
33987;SDS011;37428;53.580;-1.666;2023-12-20T13:54:48;3.78;;;0.80;;
33987;SDS011;37428;53.580;-1.666;2023-12-20T13:57:51;3.95;;;1.27;;
33987;SDS011;37428;53.580;-1.666;2023-12-20T14:00:53;3.42;;;0.82;;
33987;SDS011;37428;53.580;-1.666;2023-12-20T14:03:55;8.85;;;1.73;;
33987;SDS011;37428;53.580;-1.666;2023-12-20T14:06:59;6.28;;;2.13;;
33987;SDS011;37428;53.580;-1.666;2023-12-20T14:10:01;2.55;;;1.05;;
33987;SDS011;37428;53.580;-1.666;2023-12-20T14:13:03;7.55;;;1.25;;
33987;SDS011;37428;53.580;-1.666;2023-12-20T14:16:06;2.95;;;0.93;;
33987;SDS011;37428;53.580;-1.666;2023-12-20T14:19:10;5.10;;;0.85;;
33987;SDS011;37428;53.580;-1.666;2023-12-20T14:22:14;3.78;;;1.30;;
33987;SDS011;37428;53.580;-1.666;2023-12-20T14:25:17;4.30;;;1.20;;
33987;SDS011;37428;53.580;-1.666;2023-12-20T14:28:19;3.42;;;1.10;;
33987;SDS011;37428;53.580;-1.666;2023-12-20T14:31:21;7.00;;;1.00;;
33987;SDS011;37428;53.580;-1.666;2023-12-20T14:34:25;3.30;;;0.70;;
33987;SDS011;37428;53.580;-1.666;2023-12-20T14:37:28;2.50;;;0.82;;
33987;SDS011;37428;53.580;-1.666;2023-12-20T14:40:30;3.42;;;0.80;;
33987;SDS011;37428;53.580;-1.666;2023-12-20T14:43:33;4.47;;;0.77;;
33987;SDS011;37428;53.580;-1.666;2023-12-20T14:46:35;3.22;;;0.80;;
33987;SDS011;37428;53.580;-1.666;2023-12-20T14:49:38;3.72;;;1.02;;
33987;SDS011;37428;53.580;-1.666;2023-12-20T14:52:41;4.13;;;1.05;;
33987;SDS011;37428;53.580;-1.666;2023-12-20T14:55:45;10.48;;;2.67;;
33987;SDS011;37428;53.580;-1.666;2023-12-20T14:58:48;3.55;;;2.15;;
33987;SDS011;37428;53.580;-1.666;2023-12-20T15:01:50;7.40;;;1.30;;
33987;SDS011;37428;53.580;-1.666;2023-12-20T15:04:53;7.18;;;2.97;;
33987;SDS011;37428;53.580;-1.666;2023-12-20T15:07:56;7.60;;;1.00;;
33987;SDS011;37428;53.580;-1.666;2023-12-20T15:10:58;6.18;;;1.92;;
33987;SDS011;37428;53.580;-1.666;2023-12-20T15:14:01;6.90;;;1.20;;
33987;SDS011;37428;53.580;-1.666;2023-12-20T15:17:28;5.13;;;1.08;;
33987;SDS011;37428;53.580;-1.666;2023-12-20T15:20:53;6.15;;;0.98;;
33987;SDS011;37428;53.580;-1.666;2023-12-20T15:27:28;2.40;;;1.05;;
33987;SDS011;37428;53.580;-1.666;2023-12-20T15:30:30;5.63;;;1.40;;
33987;SDS011;37428;53.580;-1.666;2023-12-20T15:33:33;8.02;;;1.33;;
33987;SDS011;37428;53.580;-1.666;2023-12-20T15:36:35;6.88;;;1.33;;
33987;SDS011;37428;53.580;-1.666;2023-12-20T15:39:39;5.50;;;1.10;;
33987;SDS011;37428;53.580;-1.666;2023-12-20T15:42:43;3.13;;;0.88;;
33987;SDS011;37428;53.580;-1.666;2023-12-20T15:45:45;3.92;;;0.98;;
33987;SDS011;37428;53.580;-1.666;2023-12-20T15:48:47;5.22;;;1.20;;
33987;SDS011;37428;53.580;-1.666;2023-12-20T15:52:03;5.35;;;1.20;;
33987;SDS011;37428;53.580;-1.666;2023-12-20T15:55:10;5.85;;;1.17;;
33987;SDS011;37428;53.580;-1.666;2023-12-20T15:58:15;6.90;;;1.52;;
33987;SDS011;37428;53.580;-1.666;2023-12-20T16:01:31;7.47;;;1.02;;
33987;SDS011;37428;53.580;-1.666;2023-12-20T16:04:37;5.38;;;0.85;;
33987;SDS011;37428;53.580;-1.666;2023-12-20T16:07:39;6.28;;;1.25;;
33987;SDS011;37428;53.580;-1.666;2023-12-20T16:14:10;5.22;;;0.90;;
33987;SDS011;37428;53.580;-1.666;2023-12-20T16:17:34;4.63;;;0.80;;
33987;SDS011;37428;53.580;-1.666;2023-12-20T16:20:50;2.30;;;0.73;;
33987;SDS011;37428;53.580;-1.666;2023-12-20T16:23:55;3.20;;;0.63;;
33987;SDS011;37428;53.580;-1.666;2023-12-20T16:26:59;2.53;;;0.90;;
33987;SDS011;37428;53.580;-1.666;2023-12-20T16:30:01;2.80;;;0.90;;
33987;SDS011;37428;53.580;-1.666;2023-12-20T16:33:55;5.88;;;1.95;;
33987;SDS011;37428;53.580;-1.666;2023-12-20T16:36:59;1.33;;;0.70;;
33987;SDS011;37428;53.580;-1.666;2023-12-20T16:40:16;3.67;;;0.40;;
33987;SDS011;37428;53.580;-1.666;2023-12-20T16:43:31;1.38;;;0.50;;
33987;SDS011;37428;53.580;-1.666;2023-12-20T16:46:33;3.38;;;1.25;;
33987;SDS011;37428;53.580;-1.666;2023-12-20T16:49:36;1.65;;;0.60;;
33987;SDS011;37428;53.580;-1.666;2023-12-20T16:52:39;1.60;;;0.40;;
33987;SDS011;37428;53.580;-1.666;2023-12-20T16:55:42;1.65;;;0.40;;
33987;SDS011;37428;53.580;-1.666;2023-12-20T16:58:57;2.78;;;0.70;;
33987;SDS011;37428;53.580;-1.666;2023-12-20T17:02:01;1.88;;;0.50;;
33987;SDS011;37428;53.580;-1.666;2023-12-20T17:05:08;1.88;;;0.43;;
33987;SDS011;37428;53.580;-1.666;2023-12-20T17:08:17;2.35;;;0.75;;
33987;SDS011;37428;53.580;-1.666;2023-12-20T17:11:43;7.13;;;0.70;;
33987;SDS011;37428;53.580;-1.666;2023-12-20T17:14:54;3.97;;;0.75;;
33987;SDS011;37428;53.580;-1.666;2023-12-20T17:18:05;2.53;;;0.90;;
33987;SDS011;37428;53.580;-1.666;2023-12-20T17:21:17;2.20;;;0.70;;
33987;SDS011;37428;53.580;-1.666;2023-12-20T17:24:21;3.20;;;0.50;;
33987;SDS011;37428;53.580;-1.666;2023-12-20T17:27:26;1.60;;;0.52;;
33987;SDS011;37428;53.580;-1.666;2023-12-20T17:30:36;3.33;;;0.80;;
33987;SDS011;37428;53.580;-1.666;2023-12-20T17:33:38;2.55;;;1.05;;
33987;SDS011;37428;53.580;-1.666;2023-12-20T17:36:42;3.78;;;0.90;;
33987;SDS011;37428;53.580;-1.666;2023-12-20T17:39:47;3.03;;;0.88;;
33987;SDS011;37428;53.580;-1.666;2023-12-20T17:43:16;3.80;;;0.77;;
33987;SDS011;37428;53.580;-1.666;2023-12-20T17:46:20;3.53;;;0.70;;
33987;SDS011;37428;53.580;-1.666;2023-12-20T17:49:22;3.40;;;0.93;;
33987;SDS011;37428;53.580;-1.666;2023-12-20T17:52:25;1.55;;;0.55;;
33987;SDS011;37428;53.580;-1.666;2023-12-20T17:55:42;4.35;;;0.70;;
33987;SDS011;37428;53.580;-1.666;2023-12-20T17:58:44;2.50;;;1.00;;
33987;SDS011;37428;53.580;-1.666;2023-12-20T18:05:42;8.50;;;1.30;;
33987;SDS011;37428;53.580;-1.666;2023-12-20T18:08:45;3.60;;;1.27;;
33987;SDS011;37428;53.580;-1.666;2023-12-20T18:12:04;6.60;;;1.48;;
33987;SDS011;37428;53.580;-1.666;2023-12-20T18:15:26;5.00;;;0.82;;
33987;SDS011;37428;53.580;-1.666;2023-12-20T18:18:28;6.18;;;0.90;;
33987;SDS011;37428;53.580;-1.666;2023-12-20T18:21:32;5.18;;;0.75;;
33987;SDS011;37428;53.580;-1.666;2023-12-20T18:24:34;2.47;;;0.88;;
33987;SDS011;37428;53.580;-1.666;2023-12-20T18:27:36;3.78;;;0.90;;
33987;SDS011;37428;53.580;-1.666;2023-12-20T18:30:39;2.67;;;0.80;;
33987;SDS011;37428;53.580;-1.666;2023-12-20T18:34:26;5.60;;;1.48;;
33987;SDS011;37428;53.580;-1.666;2023-12-20T18:37:31;4.45;;;0.95;;
33987;SDS011;37428;53.580;-1.666;2023-12-20T18:40:35;6.10;;;1.35;;
33987;SDS011;37428;53.580;-1.666;2023-12-20T18:43:37;2.80;;;0.70;;
33987;SDS011;37428;53.580;-1.666;2023-12-20T18:46:39;3.33;;;1.00;;
33987;SDS011;37428;53.580;-1.666;2023-12-20T18:49:41;5.35;;;1.20;;
33987;SDS011;37428;53.580;-1.666;2023-12-20T18:52:45;6.43;;;1.13;;